sensor_id;sensor_type;location;lat;lon;timestamp;temperature;humidity
68977;SHT31;56029;52.568;13.588;2023-06-14T00:00:12;11.31;86.99
68977;SHT31;56029;52.568;13.588;2023-06-14T00:02:57;11.38;87.19
68977;SHT31;56029;52.568;13.588;2023-06-14T00:05:23;11.45;87.70
68977;SHT31;56029;52.568;13.588;2023-06-14T00:07:49;11.47;86.97
68977;SHT31;56029;52.568;13.588;2023-06-14T00:10:19;11.51;87.52
68977;SHT31;56029;52.568;13.588;2023-06-14T00:12:44;11.51;87.07
68977;SHT31;56029;52.568;13.588;2023-06-14T00:15:10;11.57;87.54
68977;SHT31;56029;52.568;13.588;2023-06-14T00:17:36;11.57;87.57
68977;SHT31;56029;52.568;13.588;2023-06-14T00:20:03;11.57;87.48
68977;SHT31;56029;52.568;13.588;2023-06-14T00:22:32;11.57;87.62
68977;SHT31;56029;52.568;13.588;2023-06-14T00:24:58;11.57;87.33
68977;SHT31;56029;52.568;13.588;2023-06-14T00:27:24;11.48;86.66
68977;SHT31;56029;52.568;13.588;2023-06-14T00:29:50;11.37;85.94
68977;SHT31;56029;52.568;13.588;2023-06-14T00:32:15;11.14;85.89
68977;SHT31;56029;52.568;13.588;2023-06-14T00:34:41;10.95;86.23
68977;SHT31;56029;52.568;13.588;2023-06-14T00:37:06;10.75;86.81
68977;SHT31;56029;52.568;13.588;2023-06-14T00:39:32;10.61;87.14
68977;SHT31;56029;52.568;13.588;2023-06-14T00:41:58;10.46;87.96
68977;SHT31;56029;52.568;13.588;2023-06-14T00:44:24;10.31;88.03
68977;SHT31;56029;52.568;13.588;2023-06-14T00:46:50;10.22;88.96
68977;SHT31;56029;52.568;13.588;2023-06-14T00:49:17;10.16;88.92
68977;SHT31;56029;52.568;13.588;2023-06-14T00:51:43;10.08;89.26
68977;SHT31;56029;52.568;13.588;2023-06-14T00:54:09;10.14;89.55
68977;SHT31;56029;52.568;13.588;2023-06-14T00:56:38;10.13;89.42
68977;SHT31;56029;52.568;13.588;2023-06-14T00:59:04;10.11;89.32
68977;SHT31;56029;52.568;13.588;2023-06-14T01:01:31;10.16;90.04
68977;SHT31;56029;52.568;13.588;2023-06-14T01:03:59;10.20;90.30
68977;SHT31;56029;52.568;13.588;2023-06-14T01:07:02;10.20;90.69
68977;SHT31;56029;52.568;13.588;2023-06-14T01:12:36;10.20;91.59
68977;SHT31;56029;52.568;13.588;2023-06-14T01:15:05;10.16;91.55
68977;SHT31;56029;52.568;13.588;2023-06-14T01:17:31;10.07;92.09
68977;SHT31;56029;52.568;13.588;2023-06-14T01:20:04;10.08;92.30
68977;SHT31;56029;52.568;13.588;2023-06-14T01:22:35;10.08;91.59
68977;SHT31;56029;52.568;13.588;2023-06-14T01:25:01;10.04;91.02
68977;SHT31;56029;52.568;13.588;2023-06-14T01:27:27;9.91;91.70
68977;SHT31;56029;52.568;13.588;2023-06-14T01:29:58;9.83;91.60
68977;SHT31;56029;52.568;13.588;2023-06-14T01:32:29;9.79;92.11
68977;SHT31;56029;52.568;13.588;2023-06-14T01:34:55;9.73;91.85
68977;SHT31;56029;52.568;13.588;2023-06-14T01:37:21;9.67;91.66
68977;SHT31;56029;52.568;13.588;2023-06-14T01:39:48;9.67;91.86
68977;SHT31;56029;52.568;13.588;2023-06-14T01:42:15;9.69;91.93
68977;SHT31;56029;52.568;13.588;2023-06-14T01:44:42;9.75;92.48
68977;SHT31;56029;52.568;13.588;2023-06-14T01:47:09;9.80;92.94
68977;SHT31;56029;52.568;13.588;2023-06-14T01:49:34;9.83;92.77
68977;SHT31;56029;52.568;13.588;2023-06-14T01:52:00;9.82;92.06
68977;SHT31;56029;52.568;13.588;2023-06-14T01:54:26;9.86;92.32
68977;SHT31;56029;52.568;13.588;2023-06-14T01:56:52;9.90;93.11
68977;SHT31;56029;52.568;13.588;2023-06-14T01:59:18;9.96;93.22
68977;SHT31;56029;52.568;13.588;2023-06-14T02:01:44;10.06;93.98
68977;SHT31;56029;52.568;13.588;2023-06-14T02:04:11;10.14;94.28
68977;SHT31;56029;52.568;13.588;2023-06-14T02:06:37;10.14;93.79
68977;SHT31;56029;52.568;13.588;2023-06-14T02:09:03;10.20;93.83
68977;SHT31;56029;52.568;13.588;2023-06-14T02:11:28;10.20;93.35
68977;SHT31;56029;52.568;13.588;2023-06-14T02:13:54;10.21;94.33
68977;SHT31;56029;52.568;13.588;2023-06-14T02:16:20;10.24;94.23
68977;SHT31;56029;52.568;13.588;2023-06-14T02:18:46;10.31;94.35
68977;SHT31;56029;52.568;13.588;2023-06-14T02:21:11;10.30;93.94
68977;SHT31;56029;52.568;13.588;2023-06-14T02:23:38;10.35;94.62
68977;SHT31;56029;52.568;13.588;2023-06-14T02:26:03;10.37;94.54
68977;SHT31;56029;52.568;13.588;2023-06-14T02:28:29;10.38;94.38
68977;SHT31;56029;52.568;13.588;2023-06-14T02:30:54;10.37;94.46
68977;SHT31;56029;52.568;13.588;2023-06-14T02:33:20;10.41;94.42
68977;SHT31;56029;52.568;13.588;2023-06-14T02:35:47;10.42;94.77
68977;SHT31;56029;52.568;13.588;2023-06-14T02:38:13;10.41;94.29
68977;SHT31;56029;52.568;13.588;2023-06-14T02:40:38;10.37;93.41
68977;SHT31;56029;52.568;13.588;2023-06-14T02:43:04;10.37;93.95
68977;SHT31;56029;52.568;13.588;2023-06-14T02:45:29;10.35;93.84
68977;SHT31;56029;52.568;13.588;2023-06-14T02:47:55;10.25;93.07
68977;SHT31;56029;52.568;13.588;2023-06-14T02:50:21;10.11;92.90
68977;SHT31;56029;52.568;13.588;2023-06-14T02:52:47;10.01;93.13
68977;SHT31;56029;52.568;13.588;2023-06-14T02:55:12;10.01;93.13
68977;SHT31;56029;52.568;13.588;2023-06-14T02:57:38;10.01;93.42
68977;SHT31;56029;52.568;13.588;2023-06-14T03:00:04;9.89;92.64
68977;SHT31;56029;52.568;13.588;2023-06-14T03:02:30;9.79;92.81
68977;SHT31;56029;52.568;13.588;2023-06-14T03:04:56;9.75;92.97
68977;SHT31;56029;52.568;13.588;2023-06-14T03:07:21;9.65;93.33
68977;SHT31;56029;52.568;13.588;2023-06-14T03:09:48;9.63;93.64
68977;SHT31;56029;52.568;13.588;2023-06-14T03:12:14;9.62;93.83
68977;SHT31;56029;52.568;13.588;2023-06-14T03:14:40;9.60;93.71
68977;SHT31;56029;52.568;13.588;2023-06-14T03:17:05;9.69;93.83
68977;SHT31;56029;52.568;13.588;2023-06-14T03:19:33;9.82;94.15
68977;SHT31;56029;52.568;13.588;2023-06-14T03:21:59;9.94;94.02
68977;SHT31;56029;52.568;13.588;2023-06-14T03:24:25;9.93;93.83
68977;SHT31;56029;52.568;13.588;2023-06-14T03:26:53;9.98;94.11
68977;SHT31;56029;52.568;13.588;2023-06-14T03:29:18;10.40;93.21
68977;SHT31;56029;52.568;13.588;2023-06-14T03:32:00;10.91;91.57
68977;SHT31;56029;52.568;13.588;2023-06-14T03:34:26;11.43;89.74
68977;SHT31;56029;52.568;13.588;2023-06-14T03:36:52;11.83;87.84
68977;SHT31;56029;52.568;13.588;2023-06-14T03:39:18;12.18;85.93
68977;SHT31;56029;52.568;13.588;2023-06-14T03:41:45;12.46;84.68
68977;SHT31;56029;52.568;13.588;2023-06-14T03:44:10;12.67;84.37
68977;SHT31;56029;52.568;13.588;2023-06-14T03:46:36;13.15;83.19
68977;SHT31;56029;52.568;13.588;2023-06-14T03:49:01;13.55;82.02
68977;SHT31;56029;52.568;13.588;2023-06-14T03:51:28;13.67;81.48
68977;SHT31;56029;52.568;13.588;2023-06-14T03:53:54;13.94;81.02
68977;SHT31;56029;52.568;13.588;2023-06-14T03:56:21;14.10;80.62
68977;SHT31;56029;52.568;13.588;2023-06-14T03:58:46;14.51;79.08
68977;SHT31;56029;52.568;13.588;2023-06-14T04:01:12;14.71;78.78
68977;SHT31;56029;52.568;13.588;2023-06-14T04:03:38;14.84;78.40
68977;SHT31;56029;52.568;13.588;2023-06-14T04:06:06;15.04;77.91
68977;SHT31;56029;52.568;13.588;2023-06-14T04:08:32;15.06;77.68
68977;SHT31;56029;52.568;13.588;2023-06-14T04:10:57;15.16;77.26
68977;SHT31;56029;52.568;13.588;2023-06-14T04:13:23;15.33;77.09
68977;SHT31;56029;52.568;13.588;2023-06-14T04:15:49;15.47;76.70
68977;SHT31;56029;52.568;13.588;2023-06-14T04:18:14;15.54;76.81
68977;SHT31;56029;52.568;13.588;2023-06-14T04:20:40;15.63;76.32
68977;SHT31;56029;52.568;13.588;2023-06-14T04:23:12;15.27;77.57
68977;SHT31;56029;52.568;13.588;2023-06-14T04:25:38;14.55;79.85
68977;SHT31;56029;52.568;13.588;2023-06-14T04:28:05;14.24;81.36
68977;SHT31;56029;52.568;13.588;2023-06-14T04:30:31;14.76;80.36
68977;SHT31;56029;52.568;13.588;2023-06-14T04:32:57;15.33;78.60
68977;SHT31;56029;52.568;13.588;2023-06-14T04:35:22;15.21;79.36
68977;SHT31;56029;52.568;13.588;2023-06-14T04:37:50;15.13;79.53
68977;SHT31;56029;52.568;13.588;2023-06-14T04:40:17;15.55;78.88
68977;SHT31;56029;52.568;13.588;2023-06-14T04:42:42;15.96;77.68
68977;SHT31;56029;52.568;13.588;2023-06-14T04:45:10;16.40;76.13
68977;SHT31;56029;52.568;13.588;2023-06-14T04:47:36;16.81;75.43
68977;SHT31;56029;52.568;13.588;2023-06-14T04:50:03;17.07;74.85
68977;SHT31;56029;52.568;13.588;2023-06-14T04:52:29;16.65;75.24
68977;SHT31;56029;52.568;13.588;2023-06-14T04:54:55;16.47;76.62
68977;SHT31;56029;52.568;13.588;2023-06-14T04:57:21;15.63;78.90
68977;SHT31;56029;52.568;13.588;2023-06-14T04:59:48;15.13;80.42
68977;SHT31;56029;52.568;13.588;2023-06-14T05:02:14;14.71;82.09
68977;SHT31;56029;52.568;13.588;2023-06-14T05:04:39;14.51;83.02
68977;SHT31;56029;52.568;13.588;2023-06-14T05:07:07;14.25;84.29
68977;SHT31;56029;52.568;13.588;2023-06-14T05:09:33;14.29;84.63
68977;SHT31;56029;52.568;13.588;2023-06-14T05:11:59;14.13;85.27
68977;SHT31;56029;52.568;13.588;2023-06-14T05:14:26;13.77;85.50
68977;SHT31;56029;52.568;13.588;2023-06-14T05:16:52;13.80;86.36
68977;SHT31;56029;52.568;13.588;2023-06-14T05:19:17;14.01;85.45
68977;SHT31;56029;52.568;13.588;2023-06-14T05:21:43;14.00;85.59
68977;SHT31;56029;52.568;13.588;2023-06-14T05:24:09;14.03;85.71
68977;SHT31;56029;52.568;13.588;2023-06-14T05:26:35;14.00;85.57
68977;SHT31;56029;52.568;13.588;2023-06-14T05:29:01;14.14;85.33
68977;SHT31;56029;52.568;13.588;2023-06-14T05:31:27;14.18;85.08
68977;SHT31;56029;52.568;13.588;2023-06-14T05:33:54;14.17;85.38
68977;SHT31;56029;52.568;13.588;2023-06-14T05:36:19;14.17;85.54
68977;SHT31;56029;52.568;13.588;2023-06-14T05:38:46;14.20;85.61
68977;SHT31;56029;52.568;13.588;2023-06-14T05:41:12;14.10;85.70
68977;SHT31;56029;52.568;13.588;2023-06-14T05:43:38;14.13;85.73
68977;SHT31;56029;52.568;13.588;2023-06-14T05:46:03;14.06;85.65
68977;SHT31;56029;52.568;13.588;2023-06-14T05:48:32;14.27;85.46
68977;SHT31;56029;52.568;13.588;2023-06-14T05:50:58;14.24;86.00
68977;SHT31;56029;52.568;13.588;2023-06-14T05:53:24;14.18;85.90
68977;SHT31;56029;52.568;13.588;2023-06-14T05:55:50;14.20;85.90
68977;SHT31;56029;52.568;13.588;2023-06-14T05:58:18;14.25;86.00
68977;SHT31;56029;52.568;13.588;2023-06-14T06:00:44;14.20;85.96
68977;SHT31;56029;52.568;13.588;2023-06-14T06:03:10;14.24;86.47
68977;SHT31;56029;52.568;13.588;2023-06-14T06:05:36;14.29;86.03
68977;SHT31;56029;52.568;13.588;2023-06-14T06:08:02;14.24;86.26
68977;SHT31;56029;52.568;13.588;2023-06-14T06:10:27;14.27;86.02
68977;SHT31;56029;52.568;13.588;2023-06-14T06:12:53;14.35;86.22
68977;SHT31;56029;52.568;13.588;2023-06-14T06:15:20;14.48;85.88
68977;SHT31;56029;52.568;13.588;2023-06-14T06:17:46;14.56;86.17
68977;SHT31;56029;52.568;13.588;2023-06-14T06:20:11;14.61;85.68
68977;SHT31;56029;52.568;13.588;2023-06-14T06:22:38;14.65;85.72
68977;SHT31;56029;52.568;13.588;2023-06-14T06:25:03;14.61;85.61
68977;SHT31;56029;52.568;13.588;2023-06-14T06:27:29;14.55;85.94
68977;SHT31;56029;52.568;13.588;2023-06-14T06:29:56;14.63;85.83
68977;SHT31;56029;52.568;13.588;2023-06-14T06:32:21;14.75;85.48
68977;SHT31;56029;52.568;13.588;2023-06-14T06:34:47;14.80;85.12
68977;SHT31;56029;52.568;13.588;2023-06-14T06:37:13;14.84;85.12
68977;SHT31;56029;52.568;13.588;2023-06-14T06:39:38;14.87;84.61
68977;SHT31;56029;52.568;13.588;2023-06-14T06:42:05;15.03;84.30
68977;SHT31;56029;52.568;13.588;2023-06-14T06:44:30;15.20;84.02
68977;SHT31;56029;52.568;13.588;2023-06-14T06:46:57;15.31;83.44
68977;SHT31;56029;52.568;13.588;2023-06-14T06:49:22;15.44;82.54
68977;SHT31;56029;52.568;13.588;2023-06-14T06:52:01;15.51;82.04
68977;SHT31;56029;52.568;13.588;2023-06-14T06:54:27;15.47;81.66
68977;SHT31;56029;52.568;13.588;2023-06-14T06:56:53;15.45;82.06
68977;SHT31;56029;52.568;13.588;2023-06-14T06:59:18;15.35;82.10
68977;SHT31;56029;52.568;13.588;2023-06-14T07:01:44;15.42;81.98
68977;SHT31;56029;52.568;13.588;2023-06-14T07:04:09;15.42;81.80
68977;SHT31;56029;52.568;13.588;2023-06-14T07:06:35;15.59;81.29
68977;SHT31;56029;52.568;13.588;2023-06-14T07:09:01;15.52;81.26
68977;SHT31;56029;52.568;13.588;2023-06-14T07:11:27;15.62;81.29
68977;SHT31;56029;52.568;13.588;2023-06-14T07:13:53;15.78;80.68
68977;SHT31;56029;52.568;13.588;2023-06-14T07:16:19;15.82;80.66
68977;SHT31;56029;52.568;13.588;2023-06-14T07:18:44;15.91;80.65
68977;SHT31;56029;52.568;13.588;2023-06-14T07:21:10;16.06;79.78
68977;SHT31;56029;52.568;13.588;2023-06-14T07:23:36;16.23;79.45
68977;SHT31;56029;52.568;13.588;2023-06-14T07:26:02;16.49;79.11
68977;SHT31;56029;52.568;13.588;2023-06-14T07:28:28;16.77;78.69
68977;SHT31;56029;52.568;13.588;2023-06-14T07:30:53;16.65;78.12
68977;SHT31;56029;52.568;13.588;2023-06-14T07:33:19;16.71;77.85
68977;SHT31;56029;52.568;13.588;2023-06-14T07:35:45;16.87;78.29
68977;SHT31;56029;52.568;13.588;2023-06-14T07:38:11;17.30;76.44
68977;SHT31;56029;52.568;13.588;2023-06-14T07:40:37;17.36;76.35
68977;SHT31;56029;52.568;13.588;2023-06-14T07:43:02;17.46;75.57
68977;SHT31;56029;52.568;13.588;2023-06-14T07:45:28;17.47;76.14
68977;SHT31;56029;52.568;13.588;2023-06-14T07:47:53;17.54;74.72
68977;SHT31;56029;52.568;13.588;2023-06-14T07:50:19;17.39;75.01
68977;SHT31;56029;52.568;13.588;2023-06-14T07:52:45;17.45;74.90
68977;SHT31;56029;52.568;13.588;2023-06-14T07:55:10;17.80;73.81
68977;SHT31;56029;52.568;13.588;2023-06-14T07:57:36;17.90;74.03
68977;SHT31;56029;52.568;13.588;2023-06-14T08:00:02;17.80;73.40
68977;SHT31;56029;52.568;13.588;2023-06-14T08:02:31;17.62;73.67
68977;SHT31;56029;52.568;13.588;2023-06-14T08:04:57;17.63;74.10
68977;SHT31;56029;52.568;13.588;2023-06-14T08:07:22;17.91;73.83
68977;SHT31;56029;52.568;13.588;2023-06-14T08:09:48;17.93;73.57
68977;SHT31;56029;52.568;13.588;2023-06-14T08:12:13;17.78;73.23
68977;SHT31;56029;52.568;13.588;2023-06-14T08:14:39;17.74;74.42
68977;SHT31;56029;52.568;13.588;2023-06-14T08:17:05;17.97;73.55
68977;SHT31;56029;52.568;13.588;2023-06-14T08:19:31;18.34;72.62
68977;SHT31;56029;52.568;13.588;2023-06-14T08:21:56;18.25;72.31
68977;SHT31;56029;52.568;13.588;2023-06-14T08:24:22;18.62;71.71
68977;SHT31;56029;52.568;13.588;2023-06-14T08:26:53;18.70;70.06
68977;SHT31;56029;52.568;13.588;2023-06-14T08:29:19;18.36;71.09
68977;SHT31;56029;52.568;13.588;2023-06-14T08:31:45;18.65;70.93
68977;SHT31;56029;52.568;13.588;2023-06-14T08:34:11;18.76;69.91
68977;SHT31;56029;52.568;13.588;2023-06-14T08:36:36;18.38;70.47
68977;SHT31;56029;52.568;13.588;2023-06-14T08:39:02;18.55;70.72
68977;SHT31;56029;52.568;13.588;2023-06-14T08:41:28;18.41;70.24
68977;SHT31;56029;52.568;13.588;2023-06-14T08:43:55;18.69;70.57
68977;SHT31;56029;52.568;13.588;2023-06-14T08:46:23;18.70;69.76
68977;SHT31;56029;52.568;13.588;2023-06-14T08:48:51;18.29;69.64
68977;SHT31;56029;52.568;13.588;2023-06-14T08:51:20;18.72;68.95
68977;SHT31;56029;52.568;13.588;2023-06-14T08:53:53;18.92;68.75
68977;SHT31;56029;52.568;13.588;2023-06-14T08:56:26;18.59;69.48
68977;SHT31;56029;52.568;13.588;2023-06-14T08:58:53;19.06;68.65
68977;SHT31;56029;52.568;13.588;2023-06-14T09:01:20;18.96;68.35
68977;SHT31;56029;52.568;13.588;2023-06-14T09:03:48;19.25;68.31
68977;SHT31;56029;52.568;13.588;2023-06-14T09:06:13;19.73;66.52
68977;SHT31;56029;52.568;13.588;2023-06-14T09:08:42;19.65;65.99
68977;SHT31;56029;52.568;13.588;2023-06-14T09:11:08;19.44;66.08
68977;SHT31;56029;52.568;13.588;2023-06-14T09:13:34;19.63;66.41
68977;SHT31;56029;52.568;13.588;2023-06-14T09:16:00;19.21;67.13
68977;SHT31;56029;52.568;13.588;2023-06-14T09:18:39;18.93;68.15
68977;SHT31;56029;52.568;13.588;2023-06-14T09:21:08;19.18;67.57
68977;SHT31;56029;52.568;13.588;2023-06-14T09:23:36;19.27;66.84
68977;SHT31;56029;52.568;13.588;2023-06-14T09:26:24;19.42;67.10
68977;SHT31;56029;52.568;13.588;2023-06-14T09:28:50;19.52;66.71
68977;SHT31;56029;52.568;13.588;2023-06-14T09:31:20;18.96;66.35
68977;SHT31;56029;52.568;13.588;2023-06-14T09:33:48;19.02;66.58
68977;SHT31;56029;52.568;13.588;2023-06-14T09:36:24;19.48;66.29
68977;SHT31;56029;52.568;13.588;2023-06-14T09:39:02;19.34;65.61
68977;SHT31;56029;52.568;13.588;2023-06-14T09:41:36;19.79;64.88
68977;SHT31;56029;52.568;13.588;2023-06-14T09:44:04;19.73;65.03
68977;SHT31;56029;52.568;13.588;2023-06-14T09:46:30;19.59;65.39
68977;SHT31;56029;52.568;13.588;2023-06-14T09:48:57;19.51;66.22
68977;SHT31;56029;52.568;13.588;2023-06-14T09:51:23;19.51;65.96
68977;SHT31;56029;52.568;13.588;2023-06-14T09:53:49;19.81;64.87
68977;SHT31;56029;52.568;13.588;2023-06-14T09:56:29;19.50;65.61
68977;SHT31;56029;52.568;13.588;2023-06-14T09:58:57;19.41;66.26
68977;SHT31;56029;52.568;13.588;2023-06-14T10:01:27;19.47;66.78
68977;SHT31;56029;52.568;13.588;2023-06-14T10:04:04;19.62;65.69
68977;SHT31;56029;52.568;13.588;2023-06-14T10:06:31;19.72;65.61
68977;SHT31;56029;52.568;13.588;2023-06-14T10:08:59;19.55;66.53
68977;SHT31;56029;52.568;13.588;2023-06-14T10:11:26;19.75;65.65
68977;SHT31;56029;52.568;13.588;2023-06-14T10:13:55;19.58;65.60
68977;SHT31;56029;52.568;13.588;2023-06-14T10:16:45;19.81;66.06
68977;SHT31;56029;52.568;13.588;2023-06-14T10:19:20;19.66;64.31
68977;SHT31;56029;52.568;13.588;2023-06-14T10:22:06;19.78;64.55
68977;SHT31;56029;52.568;13.588;2023-06-14T10:24:38;20.14;63.91
68977;SHT31;56029;52.568;13.588;2023-06-14T10:27:06;19.87;64.83
68977;SHT31;56029;52.568;13.588;2023-06-14T10:32:20;20.02;63.31
68977;SHT31;56029;52.568;13.588;2023-06-14T10:34:53;20.06;63.64
68977;SHT31;56029;52.568;13.588;2023-06-14T10:37:20;20.33;62.82
68977;SHT31;56029;52.568;13.588;2023-06-14T10:39:46;20.06;62.77
68977;SHT31;56029;52.568;13.588;2023-06-14T10:42:13;19.97;62.53
68977;SHT31;56029;52.568;13.588;2023-06-14T10:49:53;20.30;61.33
68977;SHT31;56029;52.568;13.588;2023-06-14T10:52:22;20.21;61.70
68977;SHT31;56029;52.568;13.588;2023-06-14T10:55:05;20.68;61.37
68977;SHT31;56029;52.568;13.588;2023-06-14T10:57:35;21.13;60.22
68977;SHT31;56029;52.568;13.588;2023-06-14T11:00:03;21.27;59.79
68977;SHT31;56029;52.568;13.588;2023-06-14T11:05:23;20.44;60.87
68977;SHT31;56029;52.568;13.588;2023-06-14T11:10:58;20.96;60.00
68977;SHT31;56029;52.568;13.588;2023-06-14T11:13:25;21.29;58.99
68977;SHT31;56029;52.568;13.588;2023-06-14T11:15:51;21.35;58.71
68977;SHT31;56029;52.568;13.588;2023-06-14T11:18:18;21.33;59.57
68977;SHT31;56029;52.568;13.588;2023-06-14T11:20:46;21.74;58.90
68977;SHT31;56029;52.568;13.588;2023-06-14T11:23:11;21.74;57.87
68977;SHT31;56029;52.568;13.588;2023-06-14T11:25:37;21.81;57.77
68977;SHT31;56029;52.568;13.588;2023-06-14T11:28:02;21.35;59.59
68977;SHT31;56029;52.568;13.588;2023-06-14T11:30:28;21.75;58.02
68977;SHT31;56029;52.568;13.588;2023-06-14T11:32:54;21.93;58.36
68977;SHT31;56029;52.568;13.588;2023-06-14T11:35:24;21.97;55.97
68977;SHT31;56029;52.568;13.588;2023-06-14T11:37:57;21.75;56.89
68977;SHT31;56029;52.568;13.588;2023-06-14T11:40:26;21.73;56.34
68977;SHT31;56029;52.568;13.588;2023-06-14T11:43:02;22.19;55.82
68977;SHT31;56029;52.568;13.588;2023-06-14T11:45:29;22.04;54.93
68977;SHT31;56029;52.568;13.588;2023-06-14T11:47:56;21.43;55.60
68977;SHT31;56029;52.568;13.588;2023-06-14T11:50:22;21.42;55.35
68977;SHT31;56029;52.568;13.588;2023-06-14T11:52:58;21.60;55.89
68977;SHT31;56029;52.568;13.588;2023-06-14T11:55:29;21.43;54.34
68977;SHT31;56029;52.568;13.588;2023-06-14T11:57:55;21.26;54.16
68977;SHT31;56029;52.568;13.588;2023-06-14T12:00:25;21.45;54.36
68977;SHT31;56029;52.568;13.588;2023-06-14T12:02:54;21.68;53.45
68977;SHT31;56029;52.568;13.588;2023-06-14T12:05:22;21.75;53.42
68977;SHT31;56029;52.568;13.588;2023-06-14T12:07:47;21.70;51.96
68977;SHT31;56029;52.568;13.588;2023-06-14T12:10:14;21.58;51.90
68977;SHT31;56029;52.568;13.588;2023-06-14T12:12:40;21.60;53.03
68977;SHT31;56029;52.568;13.588;2023-06-14T12:15:07;21.93;52.42
68977;SHT31;56029;52.568;13.588;2023-06-14T12:17:36;22.01;51.86
68977;SHT31;56029;52.568;13.588;2023-06-14T12:20:12;22.26;51.19
68977;SHT31;56029;52.568;13.588;2023-06-14T12:22:56;22.21;49.39
68977;SHT31;56029;52.568;13.588;2023-06-14T12:25:30;22.31;48.56
68977;SHT31;56029;52.568;13.588;2023-06-14T12:27:57;22.18;48.51
68977;SHT31;56029;52.568;13.588;2023-06-14T12:30:23;22.38;48.63
68977;SHT31;56029;52.568;13.588;2023-06-14T12:32:48;22.66;48.91
68977;SHT31;56029;52.568;13.588;2023-06-14T12:35:15;22.73;49.26
68977;SHT31;56029;52.568;13.588;2023-06-14T12:37:40;22.90;48.28
68977;SHT31;56029;52.568;13.588;2023-06-14T12:40:06;22.89;47.41
68977;SHT31;56029;52.568;13.588;2023-06-14T12:42:33;23.08;49.01
68977;SHT31;56029;52.568;13.588;2023-06-14T12:44:59;23.65;48.98
68977;SHT31;56029;52.568;13.588;2023-06-14T12:47:25;24.06;46.38
68977;SHT31;56029;52.568;13.588;2023-06-14T12:49:51;23.99;46.02
68977;SHT31;56029;52.568;13.588;2023-06-14T12:52:16;23.32;46.88
68977;SHT31;56029;52.568;13.588;2023-06-14T12:54:42;23.58;46.31
68977;SHT31;56029;52.568;13.588;2023-06-14T12:57:07;23.22;47.75
68977;SHT31;56029;52.568;13.588;2023-06-14T12:59:33;22.87;47.81
68977;SHT31;56029;52.568;13.588;2023-06-14T13:02:10;23.06;47.07
68977;SHT31;56029;52.568;13.588;2023-06-14T13:04:36;23.49;46.42
68977;SHT31;56029;52.568;13.588;2023-06-14T13:07:01;23.72;45.46
68977;SHT31;56029;52.568;13.588;2023-06-14T13:09:27;23.68;45.85
68977;SHT31;56029;52.568;13.588;2023-06-14T13:11:52;23.80;45.51
68977;SHT31;56029;52.568;13.588;2023-06-14T13:14:18;23.68;45.66
68977;SHT31;56029;52.568;13.588;2023-06-14T13:16:44;24.02;45.23
68977;SHT31;56029;52.568;13.588;2023-06-14T13:19:09;24.26;44.96
68977;SHT31;56029;52.568;13.588;2023-06-14T13:21:35;24.28;44.78
68977;SHT31;56029;52.568;13.588;2023-06-14T13:24:01;24.02;44.60
68977;SHT31;56029;52.568;13.588;2023-06-14T13:26:26;23.86;45.20
68977;SHT31;56029;52.568;13.588;2023-06-14T13:28:52;23.70;45.23
68977;SHT31;56029;52.568;13.588;2023-06-14T13:31:17;23.42;45.53
68977;SHT31;56029;52.568;13.588;2023-06-14T13:33:43;23.79;44.95
68977;SHT31;56029;52.568;13.588;2023-06-14T13:36:08;23.82;44.17
68977;SHT31;56029;52.568;13.588;2023-06-14T13:38:35;24.09;43.85
68977;SHT31;56029;52.568;13.588;2023-06-14T13:41:01;24.37;43.59
68977;SHT31;56029;52.568;13.588;2023-06-14T13:43:26;24.65;44.39
68977;SHT31;56029;52.568;13.588;2023-06-14T13:45:52;24.43;43.55
68977;SHT31;56029;52.568;13.588;2023-06-14T13:48:17;24.36;43.39
68977;SHT31;56029;52.568;13.588;2023-06-14T13:50:43;24.69;44.28
68977;SHT31;56029;52.568;13.588;2023-06-14T13:53:09;24.86;43.69
68977;SHT31;56029;52.568;13.588;2023-06-14T13:55:35;24.65;45.60
68977;SHT31;56029;52.568;13.588;2023-06-14T13:58:00;23.96;43.43
68977;SHT31;56029;52.568;13.588;2023-06-14T14:00:26;24.14;44.65
68977;SHT31;56029;52.568;13.588;2023-06-14T14:02:52;24.19;44.28
68977;SHT31;56029;52.568;13.588;2023-06-14T14:05:17;24.05;44.20
68977;SHT31;56029;52.568;13.588;2023-06-14T14:07:43;24.19;44.77
68977;SHT31;56029;52.568;13.588;2023-06-14T14:10:09;24.23;43.69
68977;SHT31;56029;52.568;13.588;2023-06-14T14:12:35;24.27;45.33
68977;SHT31;56029;52.568;13.588;2023-06-14T14:15:01;23.86;44.29
68977;SHT31;56029;52.568;13.588;2023-06-14T14:17:26;23.78;45.01
68977;SHT31;56029;52.568;13.588;2023-06-14T14:19:52;23.72;44.71
68977;SHT31;56029;52.568;13.588;2023-06-14T14:22:17;23.69;44.74
68977;SHT31;56029;52.568;13.588;2023-06-14T14:24:43;23.93;44.34
68977;SHT31;56029;52.568;13.588;2023-06-14T14:27:09;23.93;44.41
68977;SHT31;56029;52.568;13.588;2023-06-14T14:29:35;23.89;44.68
68977;SHT31;56029;52.568;13.588;2023-06-14T14:32:01;24.13;44.54
68977;SHT31;56029;52.568;13.588;2023-06-14T14:34:26;24.05;44.20
68977;SHT31;56029;52.568;13.588;2023-06-14T14:36:53;23.76;44.36
68977;SHT31;56029;52.568;13.588;2023-06-14T14:39:19;23.68;44.88
68977;SHT31;56029;52.568;13.588;2023-06-14T14:41:44;23.27;46.22
68977;SHT31;56029;52.568;13.588;2023-06-14T14:44:10;22.91;47.87
68977;SHT31;56029;52.568;13.588;2023-06-14T14:46:35;22.76;48.28
68977;SHT31;56029;52.568;13.588;2023-06-14T14:49:01;22.66;48.54
68977;SHT31;56029;52.568;13.588;2023-06-14T14:51:27;22.43;48.44
68977;SHT31;56029;52.568;13.588;2023-06-14T14:53:52;22.39;48.72
68977;SHT31;56029;52.568;13.588;2023-06-14T14:56:18;22.46;48.73
68977;SHT31;56029;52.568;13.588;2023-06-14T14:58:43;22.41;48.59
68977;SHT31;56029;52.568;13.588;2023-06-14T15:01:09;22.48;49.08
68977;SHT31;56029;52.568;13.588;2023-06-14T15:03:35;22.55;48.23
68977;SHT31;56029;52.568;13.588;2023-06-14T15:06:01;22.64;48.13
68977;SHT31;56029;52.568;13.588;2023-06-14T15:08:26;23.00;48.37
68977;SHT31;56029;52.568;13.588;2023-06-14T15:10:52;22.89;47.86
68977;SHT31;56029;52.568;13.588;2023-06-14T15:13:17;22.82;47.22
68977;SHT31;56029;52.568;13.588;2023-06-14T15:15:44;22.70;48.19
68977;SHT31;56029;52.568;13.588;2023-06-14T15:18:09;22.64;48.48
68977;SHT31;56029;52.568;13.588;2023-06-14T15:20:35;22.42;48.93
68977;SHT31;56029;52.568;13.588;2023-06-14T15:23:00;22.42;49.23
68977;SHT31;56029;52.568;13.588;2023-06-14T15:25:27;22.35;49.25
68977;SHT31;56029;52.568;13.588;2023-06-14T15:27:52;22.14;49.79
68977;SHT31;56029;52.568;13.588;2023-06-14T15:30:18;21.91;50.29
68977;SHT31;56029;52.568;13.588;2023-06-14T15:32:43;22.02;50.58